Englee, Canada
Current Conditions -  °F | °C
As of 6:00 AM on Thursday 27 Nov 2014 (Local Time) from CYAY Reporting Station
Overcast Overcast  
Wind Chill: 21°   Ceiling: 11000
Heat Index: 27°   Visibility: 9mi
Dew Point: 23°   Wind: 5mph
Humidity: 86%   Direction: 40°NE
Pressure: 30.04"   Gusts: NA
Location:  50.73°N, 56.1°W
Report Text: CYAY 270900Z AUTO 04004KT 9SM OVC110 M03/M05 A3004 RMK PRESFR SLP173
Loading
Personal Weather Stations






























Interactive Weather Map New forecast layout! Learn more

10-Day Weather Forecast

Advertisements
Track Severe Weather on mobile